Time;durP1;ratioP1;P1;durP2;ratioP2;P2;SDS_P1;SDS_P2;PMS_P1;PMS_P2;Temp;Humidity;BMP_temperature;BMP_pressure;BME280_temperature;BME280_humidity;BME280_pressure;Samples;Min_cycle;Max_cycle;Signal;HPM_P1;HPM_P2
2021/01/21 00:02:25;;;;;;;59.17;33.65;;;;;;;;;;4980154;28;20210;-96
2021/01/21 00:04:51;;;;;;;49.70;30.00;;;;;;;;;;4973781;28;20223;-96
2021/01/21 00:07:18;;;;;;;48.67;28.30;;;;;;;;;;4987390;28;20229;-96
2021/01/21 00:09:44;;;;;;;50.22;28.40;;;;;;;;;;4971301;28;20246;-96
2021/01/21 00:12:11;;;;;;;46.95;29.98;;;;;;;;;;4977602;28;20364;-96
2021/01/21 00:14:37;;;;;;;46.85;29.77;;;;;;;;;;4973611;28;20210;-95
2021/01/21 00:17:03;;;;;;;44.22;26.88;;;;;;;;;;4966268;28;20655;-96
2021/01/21 00:19:29;;;;;;;53.40;28.50;;;;;;;;;;4982302;28;20225;-96
2021/01/21 00:21:55;;;;;;;48.63;26.15;;;;;;;;;;4986852;28;20210;-96
2021/01/21 00:24:21;;;;;;;53.80;29.35;;;;;;;;;;4988282;28;20214;-96
2021/01/21 00:26:47;;;;;;;53.67;29.92;;;;;;;;;;4986880;28;20218;-96
2021/01/21 00:29:14;;;;;;;44.72;26.80;;;;;;;;;;4984195;28;20234;-96
2021/01/21 00:31:41;;;;;;;53.80;28.45;;;;;;;;;;4987892;28;20218;-96
2021/01/21 00:34:07;;;;;;;51.75;32.05;;;;;;;;;;4990858;28;20195;-96
2021/01/21 00:36:33;;;;;;;58.00;30.05;;;;;;;;;;4981892;28;20201;-96
2021/01/21 00:38:59;;;;;;;52.92;28.77;;;;;;;;;;4967668;28;20207;-95
2021/01/21 00:41:25;;;;;;;76.85;29.65;;;;;;;;;;4984658;28;20218;-96
2021/01/21 00:43:51;;;;;;;53.75;30.60;;;;;;;;;;4981629;28;20214;-96
2021/01/21 00:46:18;;;;;;;55.55;28.17;;;;;;;;;;4985865;28;20217;-96
2021/01/21 00:48:45;;;;;;;52.13;27.20;;;;;;;;;;4975904;28;20214;-95
2021/01/21 00:51:11;;;;;;;49.03;27.65;;;;;;;;;;4985015;28;20201;-94
2021/01/21 00:53:37;;;;;;;45.00;26.13;;;;;;;;;;4974218;28;20220;-96
2021/01/21 00:56:04;;;;;;;50.85;28.08;;;;;;;;;;4978289;28;20207;-96
2021/01/21 00:58:41;;;;;;;47.20;28.15;;;;;;;;;;4993367;28;20256;-96
2021/01/21 02:52:19;;;;;;;48.22;26.58;;;;;;;;;;5020398;28;20233;-96
2021/01/21 02:54:48;;;;;;;53.05;27.33;;;;;;;;;;4997393;28;20201;-96
2021/01/21 02:57:19;;;;;;;50.15;27.90;;;;;;;;;;5006907;28;20225;-96
2021/01/21 02:59:45;;;;;;;52.03;29.13;;;;;;;;;;5005078;28;20563;-95
2021/01/21 03:02:12;;;;;;;56.90;29.27;;;;;;;;;;5007659;28;20209;-95
2021/01/21 03:04:39;;;;;;;44.55;26.80;;;;;;;;;;5014512;28;20213;-96
2021/01/21 03:07:07;;;;;;;53.67;30.50;;;;;;;;;;5016219;28;20235;-96
2021/01/21 03:09:34;;;;;;;60.45;32.10;;;;;;;;;;5016624;28;20249;-96
2021/01/21 03:12:18;;;;;;;52.60;32.40;;;;;;;;;;5023399;28;20212;-95
2021/01/21 03:14:44;;;;;;;52.83;30.52;;;;;;;;;;5005426;28;20212;-96
2021/01/21 03:17:10;;;;;;;66.90;33.25;;;;;;;;;;5019275;28;20297;-96
2021/01/21 03:19:37;;;;;;;56.42;29.50;;;;;;;;;;5009558;28;20209;-96
2021/01/21 03:22:03;;;;;;;53.88;29.85;;;;;;;;;;5012727;28;20207;-95
2021/01/21 03:24:29;;;;;;;57.58;30.77;;;;;;;;;;5013823;28;20247;-95
2021/01/21 03:26:56;;;;;;;57.13;30.48;;;;;;;;;;5016261;28;20197;-96
2021/01/21 03:29:22;;;;;;;55.33;31.40;;;;;;;;;;5014737;28;20232;-96
2021/01/21 03:31:48;;;;;;;54.90;30.05;;;;;;;;;;5008992;28;20205;-95
2021/01/21 03:34:15;;;;;;;52.03;29.83;;;;;;;;;;5016297;28;20209;-96
2021/01/21 03:36:41;;;;;;;48.55;27.25;;;;;;;;;;5020294;28;20244;-96
2021/01/21 03:39:07;;;;;;;57.75;29.48;;;;;;;;;;5014963;28;20236;-96
2021/01/21 03:41:33;;;;;;;54.63;27.95;;;;;;;;;;5010081;28;20272;-96
2021/01/21 03:44:00;;;;;;;46.97;25.17;;;;;;;;;;5017174;28;20206;-96
2021/01/21 03:46:26;;;;;;;47.97;25.60;;;;;;;;;;5007981;28;20288;-96
2021/01/21 03:48:53;;;;;;;46.10;24.63;;;;;;;;;;5020030;28;20215;-96
2021/01/21 03:51:19;;;;;;;42.88;25.25;;;;;;;;;;5018122;28;20355;-96
2021/01/21 03:53:45;;;;;;;47.25;27.45;;;;;;;;;;5026773;28;20296;-95
2021/01/21 03:56:11;;;;;;;54.80;27.55;;;;;;;;;;5028220;28;20223;-96
2021/01/21 03:58:37;;;;;;;48.63;27.10;;;;;;;;;;5029639;28;20211;-96
2021/01/21 04:01:04;;;;;;;48.95;27.33;;;;;;;;;;5031995;28;20255;-95
2021/01/21 04:03:31;;;;;;;56.15;32.60;;;;;;;;;;5021632;28;20207;-95
2021/01/21 04:05:57;;;;;;;64.03;36.28;;;;;;;;;;5016848;28;20195;-94
2021/01/21 04:08:23;;;;;;;56.40;31.50;;;;;;;;;;5042866;28;20195;-96
2021/01/21 04:10:50;;;;;;;57.20;31.45;;;;;;;;;;5041376;28;20254;-95
2021/01/21 04:13:16;;;;;;;61.75;35.80;;;;;;;;;;5027368;28;20257;-96
2021/01/21 04:15:45;;;;;;;65.45;34.83;;;;;;;;;;5028998;28;20215;-96
2021/01/21 04:18:12;;;;;;;59.85;32.58;;;;;;;;;;5027517;28;20220;-96
2021/01/21 04:20:38;;;;;;;61.28;32.70;;;;;;;;;;5023953;28;20224;-96
2021/01/21 04:23:04;;;;;;;58.58;34.53;;;;;;;;;;5018470;28;20216;-96
2021/01/21 04:25:30;;;;;;;63.72;34.63;;;;;;;;;;5023923;28;20209;-96
2021/01/21 04:27:56;;;;;;;57.20;33.20;;;;;;;;;;5025659;28;20212;-96
2021/01/21 04:30:22;;;;;;;56.65;32.33;;;;;;;;;;5028438;28;20236;-96
2021/01/21 04:32:48;;;;;;;57.75;32.13;;;;;;;;;;5024791;28;20220;-96
2021/01/21 04:35:15;;;;;;;59.33;32.50;;;;;;;;;;5025155;28;20226;-96
2021/01/21 04:37:41;;;;;;;65.28;31.38;;;;;;;;;;5028329;28;20209;-96
2021/01/21 04:40:08;;;;;;;65.22;32.88;;;;;;;;;;5025283;28;20212;-94
2021/01/21 04:42:35;;;;;;;58.83;31.65;;;;;;;;;;5022652;28;20216;-96
2021/01/21 04:45:01;;;;;;;59.13;30.70;;;;;;;;;;5023879;28;20203;-94
2021/01/21 04:47:28;;;;;;;54.72;31.05;;;;;;;;;;5027090;28;20208;-95
2021/01/21 04:49:54;;;;;;;56.42;32.97;;;;;;;;;;5023535;28;20236;-93
2021/01/21 04:52:22;;;;;;;58.35;33.53;;;;;;;;;;5011152;28;20238;-94
2021/01/21 04:54:51;;;;;;;78.25;40.92;;;;;;;;;;5005810;28;20213;-95
2021/01/21 04:57:20;;;;;;;79.95;40.13;;;;;;;;;;5009116;28;20208;-95
2021/01/21 04:59:47;;;;;;;67.60;37.95;;;;;;;;;;5001835;28;20688;-94
2021/01/21 05:02:13;;;;;;;67.10;36.15;;;;;;;;;;5015240;28;20208;-94
2021/01/21 05:04:39;;;;;;;66.30;34.90;;;;;;;;;;5010022;28;20217;-93
2021/01/21 05:07:05;;;;;;;65.25;36.70;;;;;;;;;;5005881;28;20200;-95
2021/01/21 05:09:33;;;;;;;61.63;35.05;;;;;;;;;;5014355;28;20233;-93
2021/01/21 05:11:59;;;;;;;68.88;36.63;;;;;;;;;;5014347;28;20205;-94
2021/01/21 05:14:25;;;;;;;61.70;34.65;;;;;;;;;;5003818;28;21026;-93
2021/01/21 05:16:51;;;;;;;76.13;38.15;;;;;;;;;;5013055;28;20225;-93
2021/01/21 05:19:18;;;;;;;64.22;35.15;;;;;;;;;;5010492;28;20243;-93
2021/01/21 05:21:44;;;;;;;66.20;36.03;;;;;;;;;;5016109;28;20202;-94
2021/01/21 05:24:11;;;;;;;67.65;36.47;;;;;;;;;;5009817;28;20215;-96
2021/01/21 05:26:39;;;;;;;75.53;41.70;;;;;;;;;;5009956;28;20981;-95
2021/01/21 05:29:05;;;;;;;71.45;39.28;;;;;;;;;;5020280;28;20750;-96
2021/01/21 05:31:32;;;;;;;63.10;35.95;;;;;;;;;;5005386;28;20240;-93
2021/01/21 05:33:58;;;;;;;60.47;35.42;;;;;;;;;;5013918;28;20232;-96
2021/01/21 05:36:24;;;;;;;62.45;36.65;;;;;;;;;;5011213;28;20229;-96
2021/01/21 05:38:54;;;;;;;74.90;39.80;;;;;;;;;;5016385;28;20216;-96
2021/01/21 05:41:20;;;;;;;75.07;41.50;;;;;;;;;;5005855;28;20685;-96
2021/01/21 05:43:48;;;;;;;66.20;39.03;;;;;;;;;;5013459;28;20232;-95
2021/01/21 05:46:14;;;;;;;66.43;37.40;;;;;;;;;;5019903;28;20460;-95
2021/01/21 05:48:40;;;;;;;71.80;39.92;;;;;;;;;;5019631;28;20305;-95
2021/01/21 05:51:06;;;;;;;77.20;39.00;;;;;;;;;;5015962;28;20302;-96
2021/01/21 05:53:32;;;;;;;77.93;41.80;;;;;;;;;;5013406;28;20498;-95
2021/01/21 05:55:58;;;;;;;81.45;44.53;;;;;;;;;;5009457;28;20465;-96
2021/01/21 05:58:24;;;;;;;80.82;43.85;;;;;;;;;;5010546;28;20209;-95
2021/01/21 06:00:51;;;;;;;111.67;54.17;;;;;;;;;;5010214;28;20212;-96
2021/01/21 06:03:17;;;;;;;99.63;50.75;;;;;;;;;;5002835;28;20453;-96
2021/01/21 06:05:43;;;;;;;125.97;62.78;;;;;;;;;;5005113;28;20212;-96
2021/01/21 06:08:11;;;;;;;110.13;55.70;;;;;;;;;;5013554;28;20206;-96
2021/01/21 06:10:40;;;;;;;108.82;57.40;;;;;;;;;;5018242;28;20236;-95
2021/01/21 06:13:06;;;;;;;148.52;77.78;;;;;;;;;;5024722;28;20698;-96
2021/01/21 06:15:33;;;;;;;109.40;53.97;;;;;;;;;;5017629;28;20216;-96
2021/01/21 06:18:01;;;;;;;99.70;49.17;;;;;;;;;;5018726;28;20217;-95
2021/01/21 06:20:27;;;;;;;88.82;46.15;;;;;;;;;;5014212;28;20305;-94
2021/01/21 06:22:54;;;;;;;97.55;46.33;;;;;;;;;;5024137;28;20220;-95
2021/01/21 06:25:21;;;;;;;125.40;59.63;;;;;;;;;;5010171;28;20221;-94
2021/01/21 06:27:47;;;;;;;99.50;51.35;;;;;;;;;;5009290;28;20201;-94
2021/01/21 06:30:14;;;;;;;97.40;51.42;;;;;;;;;;5009916;28;20233;-95
2021/01/21 06:32:42;;;;;;;84.47;45.00;;;;;;;;;;5012457;28;20205;-95
2021/01/21 06:35:10;;;;;;;67.38;38.80;;;;;;;;;;5005412;28;20201;-93
2021/01/21 06:37:37;;;;;;;85.00;44.35;;;;;;;;;;5010407;28;20213;-93
2021/01/21 06:40:05;;;;;;;109.38;57.53;;;;;;;;;;5013021;28;20206;-94
2021/01/21 06:42:33;;;;;;;124.53;59.13;;;;;;;;;;5012604;28;20201;-96
2021/01/21 06:44:59;;;;;;;103.40;56.30;;;;;;;;;;5012420;28;20201;-94
2021/01/21 06:47:25;;;;;;;108.32;56.63;;;;;;;;;;5011923;28;20755;-92
2021/01/21 06:49:55;;;;;;;103.10;55.40;;;;;;;;;;5003317;28;20225;-94
2021/01/21 06:52:22;;;;;;;99.45;54.40;;;;;;;;;;5020301;28;20224;-94
2021/01/21 06:54:48;;;;;;;94.28;52.78;;;;;;;;;;5025436;28;20209;-94
2021/01/21 06:57:39;;;;;;;90.68;48.50;;;;;;;;;;5029578;28;20208;-95
2021/01/21 07:00:06;;;;;;;89.10;49.15;;;;;;;;;;5029364;28;20239;-96
2021/01/21 07:02:39;;;;;;;88.85;47.90;;;;;;;;;;5033757;28;20213;-95
2021/01/21 07:05:09;;;;;;;89.97;50.22;;;;;;;;;;5022927;28;20208;-94
2021/01/21 07:07:50;;;;;;;100.07;55.85;;;;;;;;;;5020959;28;20209;-94
2021/01/21 07:10:21;;;;;;;97.13;54.22;;;;;;;;;;5015585;28;20285;-96
2021/01/21 07:12:47;;;;;;;108.68;57.13;;;;;;;;;;5019324;28;20215;-94
2021/01/21 07:15:14;;;;;;;109.30;59.00;;;;;;;;;;5019284;28;20200;-93
2021/01/21 07:17:41;;;;;;;109.63;58.85;;;;;;;;;;5019735;28;20474;-94
2021/01/21 07:20:07;;;;;;;102.05;55.70;;;;;;;;;;5012894;28;20201;-95
2021/01/21 07:22:33;;;;;;;81.68;47.72;;;;;;;;;;5015767;28;20193;-95
2021/01/21 07:25:01;;;;;;;81.10;46.53;;;;;;;;;;5024308;28;20209;-94
2021/01/21 07:27:29;;;;;;;86.63;46.45;;;;;;;;;;5016293;28;20221;-92
2021/01/21 07:30:09;;;;;;;77.80;44.38;;;;;;;;;;5022250;28;20224;-94
2021/01/21 07:32:36;;;;;;;70.53;40.42;;;;;;;;;;5003257;28;20216;-96
2021/01/21 07:35:02;;;;;;;86.22;49.28;;;;;;;;;;5024582;28;20239;-94
2021/01/21 07:37:29;;;;;;;80.22;45.42;;;;;;;;;;5022857;28;20700;-95
2021/01/21 07:39:56;;;;;;;78.47;42.83;;;;;;;;;;5024712;28;20227;-95
2021/01/21 07:42:23;;;;;;;80.10;47.15;;;;;;;;;;5020517;28;20215;-94
2021/01/21 07:45:03;;;;;;;93.45;52.08;;;;;;;;;;5026027;28;20207;-94
2021/01/21 07:57:01;;;;;;;89.85;50.17;;;;;;;;;;4940628;29;20232;-94
2021/01/21 07:59:27;;;;;;;89.40;51.70;;;;;;;;;;4989539;28;20212;-93
2021/01/21 08:08:07;;;;;;;86.50;52.03;;;;;;;;;;4977652;28;20220;-95
2021/01/21 08:10:34;;;;;;;100.18;53.55;;;;;;;;;;4997199;28;20259;-96
2021/01/21 08:13:01;;;;;;;66.30;43.15;;;;;;;;;;5002036;28;20209;-95
2021/01/21 08:15:27;;;;;;;79.43;45.30;;;;;;;;;;4999706;28;20213;-93
2021/01/21 08:17:54;;;;;;;68.20;41.90;;;;;;;;;;5002416;28;20717;-94
2021/01/21 08:20:21;;;;;;;73.05;41.58;;;;;;;;;;5002838;28;20206;-94
2021/01/21 08:22:54;;;;;;;74.75;39.70;;;;;;;;;;5008475;28;20212;-96
2021/01/21 08:25:24;;;;;;;60.10;37.15;;;;;;;;;;5007099;28;20261;-96
2021/01/21 08:27:56;;;;;;;69.70;39.58;;;;;;;;;;5007883;28;20221;-96
2021/01/21 08:30:25;;;;;;;54.03;32.83;;;;;;;;;;5008796;28;20224;-96
2021/01/21 08:33:05;;;;;;;40.95;25.08;;;;;;;;;;5012748;28;20216;-96
2021/01/21 08:43:59;;;;;;;64.85;42.70;;;;;;;;;;5463272;23;20460;-96
2021/01/21 09:10:34;;;;;;;166.95;99.95;;;;;;;;;;5637414;23;20253;-96
2021/01/21 09:24:21;;;;;;;101.22;59.25;;;;;;;;;;4987301;28;20215;-96
2021/01/21 09:27:07;;;;;;;106.03;61.72;;;;;;;;;;4989612;28;20206;-95
2021/01/21 09:29:47;;;;;;;100.40;61.05;;;;;;;;;;4989004;28;20222;-96
2021/01/21 09:32:13;;;;;;;117.50;71.38;;;;;;;;;;5023263;23;20241;-96
2021/01/21 09:34:39;;;;;;;133.73;81.80;;;;;;;;;;5012844;28;20202;-96
2021/01/21 09:37:06;;;;;;;107.95;67.18;;;;;;;;;;5014451;28;20228;-96
2021/01/21 09:39:35;;;;;;;123.60;76.85;;;;;;;;;;5015381;28;20258;-96
2021/01/21 09:42:03;;;;;;;132.80;83.28;;;;;;;;;;4997142;28;20201;-96
2021/01/21 09:44:43;;;;;;;143.77;82.93;;;;;;;;;;5006715;28;20204;-96
2021/01/21 09:47:11;;;;;;;160.93;98.22;;;;;;;;;;5004200;28;20198;-96
2021/01/21 09:49:39;;;;;;;151.25;93.85;;;;;;;;;;5003505;28;20222;-96
2021/01/21 09:52:06;;;;;;;152.95;96.93;;;;;;;;;;5003791;28;20208;-95
2021/01/21 09:54:33;;;;;;;134.88;83.38;;;;;;;;;;5004519;28;20235;-95
2021/01/21 09:56:59;;;;;;;138.02;81.07;;;;;;;;;;5006104;28;20262;-94
2021/01/21 09:59:25;;;;;;;125.50;74.57;;;;;;;;;;5005643;28;20571;-95
2021/01/21 10:01:51;;;;;;;103.43;60.38;;;;;;;;;;5005580;28;20479;-94
2021/01/21 10:04:17;;;;;;;107.63;61.22;;;;;;;;;;5007703;28;20224;-95
2021/01/21 10:06:44;;;;;;;109.27;63.33;;;;;;;;;;5004828;28;20213;-95
2021/01/21 10:09:09;;;;;;;115.77;66.33;;;;;;;;;;5006370;28;20451;-95
2021/01/21 10:11:37;;;;;;;109.87;60.53;;;;;;;;;;5003235;28;20513;-96
2021/01/21 10:16:46;;;;;;;109.10;63.77;;;;;;;;;;5009064;28;21036;-95
2021/01/21 10:19:12;;;;;;;126.03;80.70;;;;;;;;;;5005291;28;20917;-95
2021/01/21 10:21:38;;;;;;;130.77;80.87;;;;;;;;;;5004019;28;20472;-94
2021/01/21 10:24:05;;;;;;;134.00;86.17;;;;;;;;;;5004500;28;20492;-95
2021/01/21 10:26:31;;;;;;;135.50;84.03;;;;;;;;;;5005912;28;20448;-95
2021/01/21 10:28:58;;;;;;;111.57;75.77;;;;;;;;;;5002233;28;20455;-96
2021/01/21 10:31:24;;;;;;;128.27;78.47;;;;;;;;;;5003377;28;20501;-96
2021/01/21 10:33:50;;;;;;;129.70;83.00;;;;;;;;;;5001986;28;20441;-96
2021/01/21 10:36:16;;;;;;;125.70;77.40;;;;;;;;;;5005935;28;20504;-96
2021/01/21 10:38:54;;;;;;;129.57;81.17;;;;;;;;;;5010064;28;20445;-96
2021/01/21 10:41:21;;;;;;;125.23;81.93;;;;;;;;;;5012627;28;20460;-96
2021/01/21 10:43:51;;;;;;;121.13;78.60;;;;;;;;;;5015044;28;20515;-96
2021/01/21 10:46:41;;;;;;;114.03;70.23;;;;;;;;;;5013276;28;20465;-96
2021/01/21 10:49:10;;;;;;;102.70;65.53;;;;;;;;;;5001570;28;20484;-96
2021/01/21 10:51:38;;;;;;;104.20;64.10;;;;;;;;;;5015776;28;20496;-96
2021/01/21 10:54:04;;;;;;;90.50;60.87;;;;;;;;;;5010890;28;20447;-96
2021/01/21 10:56:33;;;;;;;112.57;74.00;;;;;;;;;;4996024;28;20440;-96
2021/01/21 11:11:19;;;;;;;79.07;55.40;;;;;;;;;;4960333;29;20597;-96
2021/01/21 11:19:21;;;;;;;41.60;31.63;;;;;;;;;;5116501;23;20472;-96
2021/01/21 11:26:55;;;;;;;7.67;6.43;;;;;;;;;;5007566;28;20554;-96
2021/01/21 11:29:36;;;;;;;6.03;4.97;;;;;;;;;;5009054;28;20465;-96
2021/01/21 11:32:07;;;;;;;26.13;5.00;;;;;;;;;;4997181;28;20447;-96
2021/01/21 11:34:34;;;;;;;3.73;3.33;;;;;;;;;;4986786;28;20470;-96
2021/01/21 11:37:01;;;;;;;4.20;2.97;;;;;;;;;;5012337;28;20460;-96
2021/01/21 11:39:28;;;;;;;4.40;3.57;;;;;;;;;;5009947;28;20548;-96
2021/01/21 11:42:03;;;;;;;3.43;3.13;;;;;;;;;;5013516;28;21285;-96
2021/01/21 11:46:55;;;;;;;4.75;4.22;;;;;;;;;;5016475;23;20491;-94
2021/01/21 11:49:25;;;;;;;3.40;3.10;;;;;;;;;;5011562;28;20219;-96
2021/01/21 11:52:05;;;;;;;3.70;3.40;;;;;;;;;;5013586;28;20465;-96
2021/01/21 11:54:32;;;;;;;3.00;2.70;;;;;;;;;;5009491;28;20438;-96
2021/01/21 11:57:02;;;;;;;4.27;2.90;;;;;;;;;;5015669;28;20830;-96
2021/01/21 11:59:28;;;;;;;4.90;3.27;;;;;;;;;;5005031;28;20476;-94
2021/01/21 12:01:54;;;;;;;4.03;3.40;;;;;;;;;;5004614;28;20464;-95
2021/01/21 12:04:20;;;;;;;4.00;3.40;;;;;;;;;;5013084;28;20451;-96
2021/01/21 12:06:48;;;;;;;5.30;3.50;;;;;;;;;;5008836;28;20463;-95
2021/01/21 12:09:32;;;;;;;4.30;3.50;;;;;;;;;;5005504;28;20460;-96
2021/01/21 12:12:27;;;;;;;3.77;3.47;;;;;;;;;;5014465;28;20456;-96
2021/01/21 12:22:38;;;;;;;3.37;2.90;;;;;;;;;;3061042;26;20479;-96
2021/01/21 12:25:06;;;;;;;2.90;2.70;;;;;;;;;;5017502;28;20449;-96
2021/01/21 12:27:45;;;;;;;2.80;2.60;;;;;;;;;;5017942;28;20437;-96
2021/01/21 12:30:14;;;;;;;3.23;2.90;;;;;;;;;;5153241;23;20491;-96
2021/01/21 12:32:44;;;;;;;3.93;3.20;;;;;;;;;;5035158;28;20443;-96
2021/01/21 12:35:13;;;;;;;3.93;3.43;;;;;;;;;;5029794;28;20456;-96
2021/01/21 12:40:26;;;;;;;3.47;3.17;;;;;;;;;;5023243;28;20443;-95
2021/01/21 12:42:55;;;;;;;3.50;3.20;;;;;;;;;;5014786;23;20504;-96
2021/01/21 12:45:22;;;;;;;3.47;3.17;;;;;;;;;;5006984;28;20463;-95
2021/01/21 12:47:48;;;;;;;3.30;3.00;;;;;;;;;;5010277;28;20483;-96
2021/01/21 12:50:14;;;;;;;3.57;3.27;;;;;;;;;;5004256;28;20546;-95
2021/01/21 12:55:28;;;;;;;3.70;3.27;;;;;;;;;;5006875;28;20510;-96
2021/01/21 12:57:57;;;;;;;3.70;3.40;;;;;;;;;;5008628;28;20451;-95
2021/01/21 13:00:51;;;;;;;4.63;3.70;;;;;;;;;;5029588;23;20489;-96
2021/01/21 13:03:37;;;;;;;3.20;2.90;;;;;;;;;;5003500;28;20490;-96
2021/01/21 13:06:05;;;;;;;4.17;3.43;;;;;;;;;;5011117;28;20467;-93
2021/01/21 13:08:31;;;;;;;4.13;3.73;;;;;;;;;;5009422;28;20436;-95
2021/01/21 13:11:15;;;;;;;3.83;3.40;;;;;;;;;;5011420;28;20527;-96
2021/01/21 13:13:53;;;;;;;4.13;3.47;;;;;;;;;;5014457;28;20440;-95
2021/01/21 13:16:24;;;;;;;4.20;3.47;;;;;;;;;;5032510;23;20504;-95
2021/01/21 13:18:50;;;;;;;2.93;2.73;;;;;;;;;;4998467;28;20467;-96
2021/01/21 13:21:18;;;;;;;3.70;3.33;;;;;;;;;;5006973;28;20457;-96
2021/01/21 13:23:45;;;;;;;4.43;3.90;;;;;;;;;;5006969;28;20509;-93
2021/01/21 13:26:10;;;;;;;4.13;3.50;;;;;;;;;;5007848;28;20475;-95
2021/01/21 13:28:36;;;;;;;3.37;3.07;;;;;;;;;;5006972;28;20452;-92
2021/01/21 13:31:17;;;;;;;4.63;3.83;;;;;;;;;;5002738;28;20505;-96
2021/01/21 13:33:46;;;;;;;5.17;3.90;;;;;;;;;;5002018;28;20449;-94
2021/01/21 13:36:12;;;;;;;4.53;3.70;;;;;;;;;;5005932;28;20496;-95
2021/01/21 13:38:39;;;;;;;4.20;3.80;;;;;;;;;;5002077;28;20433;-96
2021/01/21 13:41:06;;;;;;;4.07;3.67;;;;;;;;;;5007068;28;20492;-96
2021/01/21 13:43:33;;;;;;;3.93;3.43;;;;;;;;;;5004597;28;20467;-96
2021/01/21 13:46:01;;;;;;;4.40;4.00;;;;;;;;;;4999408;28;20514;-91
2021/01/21 13:48:28;;;;;;;4.57;3.70;;;;;;;;;;5000768;28;20453;-96
2021/01/21 13:50:54;;;;;;;5.50;3.80;;;;;;;;;;5004166;28;20495;-92
2021/01/21 13:53:20;;;;;;;5.10;3.57;;;;;;;;;;5005262;28;20539;-96
2021/01/21 13:55:46;;;;;;;4.03;3.63;;;;;;;;;;5004620;28;20502;-93
2021/01/21 13:58:13;;;;;;;7.90;4.00;;;;;;;;;;5003456;28;20451;-94
2021/01/21 14:00:38;;;;;;;5.00;4.50;;;;;;;;;;5001482;28;20458;-95
2021/01/21 14:03:07;;;;;;;4.73;4.10;;;;;;;;;;5001487;28;20475;-92
2021/01/21 14:05:44;;;;;;;4.73;4.23;;;;;;;;;;5003439;28;20469;-95
2021/01/21 14:08:10;;;;;;;5.53;4.90;;;;;;;;;;5001123;28;20456;-94
2021/01/21 14:10:37;;;;;;;5.20;4.70;;;;;;;;;;5000074;28;20587;-92
2021/01/21 14:13:03;;;;;;;5.93;5.10;;;;;;;;;;5004416;23;20506;-96
2021/01/21 14:15:30;;;;;;;5.70;5.10;;;;;;;;;;4965185;28;20468;-96
2021/01/21 14:17:56;;;;;;;5.57;4.93;;;;;;;;;;4965091;28;20467;-92
2021/01/21 14:20:22;;;;;;;8.20;5.30;;;;;;;;;;4978132;28;20463;-96
2021/01/21 14:22:49;;;;;;;7.30;5.63;;;;;;;;;;4981642;28;20539;-96
2021/01/21 14:25:18;;;;;;;6.20;5.07;;;;;;;;;;4983948;28;20456;-96
2021/01/21 14:27:44;;;;;;;8.40;5.40;;;;;;;;;;4984312;28;20465;-90
2021/01/21 14:30:20;;;;;;;6.50;5.90;;;;;;;;;;4988111;28;20515;-96
2021/01/21 14:32:46;;;;;;;6.23;5.63;;;;;;;;;;4986168;28;20494;-96
2021/01/21 14:35:13;;;;;;;6.33;5.73;;;;;;;;;;4989184;28;20457;-90
2021/01/21 14:37:39;;;;;;;6.33;5.23;;;;;;;;;;4981113;28;20451;-94
2021/01/21 14:40:07;;;;;;;6.63;5.03;;;;;;;;;;4983482;28;20461;-93
2021/01/21 14:42:33;;;;;;;6.33;5.50;;;;;;;;;;4988681;28;20467;-95
2021/01/21 14:44:59;;;;;;;7.57;5.83;;;;;;;;;;4990629;28;20447;-92
2021/01/21 14:47:25;;;;;;;8.27;5.47;;;;;;;;;;4981216;28;20450;-94
2021/01/21 14:49:51;;;;;;;7.20;5.70;;;;;;;;;;4981259;28;20473;-96
2021/01/21 14:52:17;;;;;;;7.23;5.70;;;;;;;;;;4982623;28;20463;-91
2021/01/21 14:54:45;;;;;;;6.67;5.20;;;;;;;;;;4980340;28;20450;-89
2021/01/21 14:57:12;;;;;;;7.57;6.00;;;;;;;;;;4983476;28;20453;-96
2021/01/21 14:59:38;;;;;;;9.20;7.30;;;;;;;;;;4981589;28;20458;-96
2021/01/21 15:02:05;;;;;;;6.27;5.63;;;;;;;;;;4983374;28;21061;-90
2021/01/21 15:04:31;;;;;;;6.80;6.00;;;;;;;;;;4980309;28;20458;-93
2021/01/21 15:06:56;;;;;;;7.50;5.70;;;;;;;;;;4982732;28;20927;-94
2021/01/21 15:09:22;;;;;;;7.77;5.33;;;;;;;;;;4980437;28;20448;-91
2021/01/21 15:11:48;;;;;;;6.43;5.60;;;;;;;;;;4979632;28;20584;-95
2021/01/21 15:14:15;;;;;;;6.87;5.40;;;;;;;;;;4980074;28;20481;-93
2021/01/21 15:16:41;;;;;;;10.20;7.60;;;;;;;;;;4979370;28;20453;-94
2021/01/21 15:19:07;;;;;;;7.17;5.47;;;;;;;;;;4982947;28;20485;-92
2021/01/21 15:21:33;;;;;;;8.10;5.93;;;;;;;;;;4981109;28;20534;-92
2021/01/21 15:24:00;;;;;;;7.00;5.93;;;;;;;;;;4984663;28;20544;-95
2021/01/21 15:26:27;;;;;;;8.93;5.77;;;;;;;;;;4983437;28;20453;-94
2021/01/21 15:28:53;;;;;;;9.70;6.70;;;;;;;;;;4984851;28;20458;-91
2021/01/21 15:31:20;;;;;;;6.80;5.60;;;;;;;;;;4982458;28;20524;-91
2021/01/21 15:33:46;;;;;;;7.77;5.50;;;;;;;;;;4980645;28;20543;-92
2021/01/21 15:36:12;;;;;;;8.63;5.50;;;;;;;;;;4983724;28;20939;-94
2021/01/21 15:38:38;;;;;;;7.10;5.43;;;;;;;;;;4986459;28;20521;-94
2021/01/21 15:41:04;;;;;;;7.37;5.60;;;;;;;;;;4985209;28;20520;-95
2021/01/21 15:43:30;;;;;;;7.60;5.70;;;;;;;;;;4981064;28;20462;-94
2021/01/21 15:45:56;;;;;;;6.40;5.47;;;;;;;;;;4983217;28;20454;-91
2021/01/21 15:48:23;;;;;;;6.10;5.23;;;;;;;;;;4981499;28;20848;-95
2021/01/21 15:50:49;;;;;;;8.70;6.20;;;;;;;;;;4983699;28;20501;-93
2021/01/21 15:53:15;;;;;;;9.23;6.13;;;;;;;;;;4985113;28;20442;-96
2021/01/21 15:55:41;;;;;;;7.30;6.00;;;;;;;;;;4982608;28;20632;-94
2021/01/21 15:58:07;;;;;;;7.37;6.37;;;;;;;;;;4986296;28;20492;-95
2021/01/21 16:00:33;;;;;;;7.77;6.47;;;;;;;;;;4991067;28;20468;-96
2021/01/21 16:03:03;;;;;;;8.67;6.70;;;;;;;;;;4991472;28;20516;-96
2021/01/21 16:08:15;;;;;;;8.88;6.00;;;;;;;;;;5107262;23;20468;-96
2021/01/21 16:10:44;;;;;;;7.53;5.93;;;;;;;;;;5004028;28;20244;-93
2021/01/21 16:13:10;;;;;;;9.13;5.80;;;;;;;;;;5005327;28;20503;-96
2021/01/21 16:15:36;;;;;;;9.13;6.33;;;;;;;;;;5007031;28;20452;-96
2021/01/21 16:18:02;;;;;;;6.47;5.50;;;;;;;;;;5010055;28;20453;-96
2021/01/21 16:20:37;;;;;;;6.57;5.77;;;;;;;;;;5050778;23;20501;-96
2021/01/21 16:23:07;;;;;;;7.70;5.27;;;;;;;;;;5102446;23;20870;-96
2021/01/21 16:25:33;;;;;;;8.20;5.90;;;;;;;;;;5008292;28;20480;-95
2021/01/21 16:28:00;;;;;;;7.10;5.73;;;;;;;;;;4990041;28;20528;-95
2021/01/21 16:30:26;;;;;;;7.37;6.17;;;;;;;;;;5005792;28;20488;-96
2021/01/21 16:32:54;;;;;;;7.93;5.53;;;;;;;;;;4999956;28;20455;-95
2021/01/21 16:35:20;;;;;;;8.10;5.70;;;;;;;;;;4987577;28;20460;-95
2021/01/21 16:37:46;;;;;;;8.87;5.90;;;;;;;;;;4990711;28;20446;-96
2021/01/21 16:40:20;;;;;;;6.13;5.23;;;;;;;;;;4994409;28;20468;-95
2021/01/21 16:42:53;;;;;;;5.90;5.17;;;;;;;;;;4994480;28;20441;-96
2021/01/21 16:45:20;;;;;;;5.43;4.80;;;;;;;;;;4993189;28;20594;-96
2021/01/21 16:47:46;;;;;;;7.20;5.93;;;;;;;;;;4993123;28;20479;-91
2021/01/21 16:50:12;;;;;;;5.97;5.37;;;;;;;;;;5001471;28;21012;-95
2021/01/21 16:52:38;;;;;;;10.10;5.50;;;;;;;;;;4990413;28;20450;-96
2021/01/21 16:55:05;;;;;;;8.17;5.70;;;;;;;;;;4986923;28;20622;-96
2021/01/21 16:57:31;;;;;;;7.60;5.33;;;;;;;;;;4994994;28;20472;-96
2021/01/21 16:59:57;;;;;;;7.53;5.90;;;;;;;;;;4983820;28;20482;-96
2021/01/21 17:02:25;;;;;;;6.60;5.30;;;;;;;;;;4987378;28;20547;-96
2021/01/21 17:04:51;;;;;;;8.10;5.40;;;;;;;;;;4994874;28;20459;-94
2021/01/21 17:07:18;;;;;;;6.23;5.30;;;;;;;;;;4994116;28;20441;-93
2021/01/21 17:09:44;;;;;;;7.10;5.00;;;;;;;;;;4994276;28;20461;-94
2021/01/21 17:12:10;;;;;;;6.80;5.53;;;;;;;;;;4984189;28;20564;-94
2021/01/21 17:14:36;;;;;;;5.63;4.77;;;;;;;;;;4993053;28;20441;-96
2021/01/21 17:17:03;;;;;;;6.10;5.50;;;;;;;;;;5001475;28;20464;-96
2021/01/21 17:19:30;;;;;;;6.47;5.73;;;;;;;;;;4998827;28;20457;-95
2021/01/21 17:21:56;;;;;;;6.07;5.17;;;;;;;;;;4977466;28;20466;-92
2021/01/21 17:24:23;;;;;;;6.23;5.60;;;;;;;;;;4983007;28;20562;-96
2021/01/21 17:26:49;;;;;;;9.43;7.37;;;;;;;;;;4994148;28;20453;-96
2021/01/21 17:29:15;;;;;;;8.63;6.57;;;;;;;;;;4993938;28;20460;-95
2021/01/21 17:31:41;;;;;;;11.63;9.47;;;;;;;;;;5005083;28;20476;-95
2021/01/21 17:34:07;;;;;;;10.10;9.00;;;;;;;;;;4987137;28;20447;-96
2021/01/21 17:36:34;;;;;;;13.70;10.43;;;;;;;;;;4994051;28;20491;-95
2021/01/21 17:39:00;;;;;;;11.60;8.93;;;;;;;;;;4982049;28;20464;-96
2021/01/21 17:41:26;;;;;;;9.00;7.77;;;;;;;;;;4987366;28;20485;-96
2021/01/21 17:43:52;;;;;;;11.67;8.90;;;;;;;;;;4998146;28;20444;-96
2021/01/21 17:46:18;;;;;;;24.73;17.37;;;;;;;;;;4988269;28;20815;-95
2021/01/21 17:48:44;;;;;;;25.57;17.07;;;;;;;;;;4987169;28;20456;-95
2021/01/21 17:51:10;;;;;;;43.47;27.13;;;;;;;;;;4987102;28;20500;-96
2021/01/21 17:53:37;;;;;;;34.37;23.63;;;;;;;;;;4987529;28;20449;-95
2021/01/21 17:56:04;;;;;;;32.67;24.20;;;;;;;;;;4982252;28;20463;-95
2021/01/21 17:58:30;;;;;;;37.03;29.97;;;;;;;;;;4983551;28;20445;-96
2021/01/21 18:00:56;;;;;;;51.27;35.67;;;;;;;;;;4982257;28;20504;-96
2021/01/21 18:03:22;;;;;;;55.10;36.27;;;;;;;;;;4979551;28;20492;-96
2021/01/21 18:05:48;;;;;;;68.33;46.30;;;;;;;;;;4991946;28;20480;-96